Latest Weather Observations for Archerfield

IDQ60901

Issued at 9:21 am EST Wednesday 22 February 2017 (issued every 10 minutes, with the page automatically refreshed every 10 minutes)

About weather observations | Map of Brisbane area stations | Latest observations for Brisbane area | Other Formats
Station Details ID: 040211 Name: ARCHERFIELD AIRPORT Lat: -27.57 Lon: 153.01 Height: 12.5 m
Data from the previous 72 hours. | See also: Recent months at Archerfield
Date/Time
EST
Temp
°C
App
Temp
°C
Dew
Point
°C
Rel
Hum
%
Delta-T
°C
Wind Press
QNH
hPa
Press
MSL
hPa
Rain since
9am
mm
Dir  Spd
km/h
Gust
km/h
Spd
kts
Gust
kts
22/09:00am 26.5 25.4 17.3 57 5.7 SE 19 26 10 14 1019.8 1019.7 0.0
22/08:30am 26.2 25.6 17.6 59 5.4 SSE 17 22 9 12 1019.7 1019.6 0.0
22/08:00am 25.2 25.4 17.7 63 4.7 S 13 20 7 11 1019.5 1019.4 0.0
22/07:30am 23.5 23.2 17.3 68 3.8 S 15 19 8 10 1019.4 1019.3 0.0
22/07:00am 23.1 23.4 17.1 69 3.7 S 11 17 6 9 1019.4 1019.3 0.0
22/06:30am 22.5 22.8 17.0 71 3.4 SSW 11 15 6 8 1019.2 1019.1 0.0
22/06:00am 21.9 22.0 16.6 72 3.2 SSW 11 15 6 8 1018.8 1018.7 0.0
22/05:30am 21.8 22.4 16.7 73 3.1 SSW 9 13 5 7 1018.5 1018.4 0.0
22/05:00am 21.9 22.0 16.6 72 3.2 S 11 13 6 7 1018.1 1018.0 0.0
22/04:30am 21.7 22.4 17.1 75 2.8 SSW 9 11 5 6 1018.1 1018.0 0.0
22/04:00am 21.9 22.1 16.8 73 3.1 S 11 13 6 7 1017.5 1017.4 0.0
22/03:30am 22.3 22.5 16.8 71 3.4 S 11 15 6 8 1017.5 1017.4 0.0
22/03:00am 21.9 22.9 16.8 73 3.1 S 7 9 4 5 1017.6 1017.5 0.0
22/02:30am 22.0 22.6 16.9 73 3.1 SSW 9 11 5 6 1017.7 1017.6 0.0
22/02:00am 22.3 22.6 17.0 72 3.2 SSW 11 13 6 7 1017.8 1017.7 0.0
22/01:30am 22.5 23.0 17.4 73 3.1 SSW 11 13 6 7 1017.9 1017.8 0.0
22/01:00am 22.4 23.7 17.5 74 3.0 SW 7 9 4 5 1018.0 1017.9 0.0
22/12:30am 22.5 23.6 17.2 72 3.3 SSW 7 9 4 5 1018.1 1018.0 0.0
22/12:00am 23.4 24.2 17.4 69 3.7 S 9 11 5 6 1018.1 1018.0 0.0
 
Date/Time
EST
Temp
°C
App
Temp
°C
Dew
Point
°C
Rel
Hum
%
Delta-T
°C
Wind Press
QNH
hPa
Press
MSL
hPa
Rain since
9am
mm
Dir  Spd
km/h
Gust
km/h
Spd
kts
Gust
kts
21/11:30pm 23.8 25.0 17.3 67 4.0 S 7 11 4 6 1018.4 1018.3 0.0
21/11:00pm 24.0 24.7 17.0 65 4.3 SSE 9 11 5 6 1018.4 1018.3 0.0
21/10:30pm 24.7 24.0 17.4 64 4.5 SE 17 22 9 12 1018.4 1018.3 0.0
21/10:00pm 24.9 24.5 17.1 62 4.8 ESE 15 22 8 12 1019.0 1018.9 0.0
21/09:30pm 25.2 24.4 17.1 60 5.0 ESE 17 26 9 14 1019.0 1018.9 0.0
21/09:00pm 25.1 24.3 17.1 61 5.0 ESE 17 20 9 11 1018.8 1018.7 0.0
21/08:30pm 25.3 24.1 17.0 60 5.1 ESE 19 28 10 15 1018.6 1018.5 0.0
21/08:00pm 25.3 24.2 16.4 57 5.5 ESE 17 24 9 13 1018.3 1018.2 0.0
21/07:30pm 25.8 24.2 16.1 55 5.9 ESE 19 26 10 14 1018.0 1017.9 0.0
21/07:00pm 26.2 24.4 15.9 53 6.3 ESE 20 28 11 15 1017.7 1017.6 0.0
21/06:30pm 26.4 23.9 16.1 53 6.3 ESE 24 35 13 19 1017.5 1017.4 0.0
21/06:00pm 26.6 23.1 16.5 54 6.2 ESE 30 41 16 22 1017.0 1016.9 0.0
21/05:30pm 27.0 24.4 17.8 57 5.8 ESE 28 37 15 20 1016.6 1016.5 0.0
21/05:00pm 27.3 25.1 18.6 59 5.6 ESE 28 39 15 21 1016.0 1015.9 0.0
21/04:30pm 28.5 26.1 18.3 54 6.5 SE 28 39 15 21 1015.9 1015.8 0.0
21/04:00pm 29.3 26.0 16.1 44 8.2 E 28 37 15 20 1015.6 1015.5 0.0
21/03:30pm 29.6 27.3 18.4 51 7.2 E 28 39 15 21 1015.4 1015.3 0.0
21/03:00pm 30.0 28.2 18.8 51 7.2 E 26 39 14 21 1015.3 1015.2 0.0
21/02:30pm 30.2 28.3 18.6 49 7.5 ESE 26 41 14 22 1015.4 1015.3 0.0
21/02:00pm 30.7 28.3 17.4 45 8.4 ESE 26 35 14 19 1015.3 1015.2 0.0
21/01:30pm 31.6 29.6 16.4 40 9.5 E 22 30 12 16 1015.3 1015.2 0.0
21/01:00pm 30.0 27.9 16.1 43 8.6 ESE 22 32 12 17 1015.4 1015.3 0.0
21/12:30pm 31.0 29.1 15.8 40 9.4 E 20 30 11 16 1015.6 1015.5 0.0
21/12:00pm 30.0 28.2 16.1 43 8.6 SE 20 32 11 17 1016.0 1015.9 0.0
21/11:30am 30.5 29.4 17.2 44 8.4 SE 19 26 10 14 1016.2 1016.1 0.0
21/11:00am 30.3 29.9 16.3 42 8.7 SE 13 24 7 13 1016.6 1016.5 0.0
21/10:30am 28.8 29.1 18.0 52 6.9 SSE 13 20 7 11 1017.0 1016.9 0.0
21/10:00am 29.1 29.5 18.2 51 7.0 ESE 13 19 7 10 1017.2 1017.1 0.0
21/09:30am 27.9 29.4 18.9 58 5.8 SSE 9 19 5 10 1017.5 1017.4 0.0
21/09:00am 28.0 29.4 19.5 60 5.5 SE 11 17 6 9 1017.4 1017.3 0.2
21/08:30am 26.5 27.6 19.6 66 4.5 S 13 17 7 9 1017.4 1017.3 0.2
21/08:00am 25.9 27.2 19.3 67 4.2 SSW 11 15 6 8 1017.2 1017.1 0.2
21/07:30am 24.3 24.0 18.2 68 3.8 S 17 20 9 11 1017.0 1016.9 0.2
21/07:00am 23.3 24.0 18.0 72 3.3 SSW 11 17 6 9 1016.9 1016.8 0.2
21/06:30am 22.2 22.8 17.8 76 2.7 SSW 11 15 6 8 1016.4 1016.3 0.2
21/06:00am 21.3 22.2 17.5 79 2.3 SW 9 15 5 8 1015.9 1015.8 0.2
21/05:30am 21.6 21.8 17.6 78 2.5 S 13 19 7 10 1015.2 1015.1 0.2
21/05:00am 21.5 21.7 17.7 79 2.3 S 13 17 7 9 1014.7 1014.6 0.2
21/04:30am 21.4 22.1 18.0 81 2.1 S 11 15 6 8 1014.3 1014.2 0.2
21/04:00am 21.5 22.1 18.5 83 1.9 SSW 13 15 7 8 1014.2 1014.1 0.2
21/03:30am 22.0 22.8 19.0 83 1.9 S 13 17 7 9 1013.9 1013.8 0.2
21/03:00am 22.1 23.0 19.3 84 1.8 S 13 17 7 9 1013.9 1013.8 0.2
21/02:30am 22.2 22.8 19.4 84 1.8 S 15 17 8 9 1013.8 1013.7 0.2
21/02:00am 22.4 24.2 19.6 84 1.8 S 9 11 5 6 1013.8 1013.7 0.2
21/01:30am 22.7 25.0 19.5 82 2.0 S 6 7 3 4 1014.1 1014.0 0.2
21/01:00am 23.2 25.3 20.2 83 1.9 S 9 9 5 5 1014.4 1014.3 0.2
21/12:30am 23.2 25.9 20.2 83 1.9 SSW 6 7 3 4 1014.5 1014.4 0.2
21/12:00am 24.0 26.4 20.1 79 2.5 SE 7 9 4 5 1014.5 1014.4 0.2
 
Date/Time
EST
Temp
°C
App
Temp
°C
Dew
Point
°C
Rel
Hum
%
Delta-T
°C
Wind Press
QNH
hPa
Press
MSL
hPa
Rain since
9am
mm
Dir  Spd
km/h
Gust
km/h
Spd
kts
Gust
kts
20/11:30pm 24.5 27.1 20.4 78 2.7 SE 7 7 4 4 1014.7 1014.6 0.2
20/11:00pm 24.4 28.2 20.1 77 2.8 CALM 0 4 0 2 1014.6 1014.5 0.2
20/10:30pm 24.7 27.3 20.0 75 3.0 SE 6 9 3 5 1014.9 1014.8 0.2
20/10:00pm 24.4 26.8 20.1 77 2.8 ENE 7 9 4 5 1014.7 1014.6 0.2
20/09:30pm 24.8 26.9 20.1 75 3.0 ENE 9 11 5 6 1014.6 1014.5 0.2
20/09:00pm 24.6 26.9 19.4 73 3.3 NE 6 9 3 5 1014.3 1014.2 0.2
20/08:30pm 24.9 26.6 19.3 71 3.6 E 9 15 5 8 1013.7 1013.6 0.2
20/08:00pm 25.2 25.9 18.9 68 4.0 E 13 22 7 12 1013.2 1013.1 0.2
20/07:30pm 25.5 25.6 18.4 65 4.5 E 15 20 8 11 1012.6 1012.5 0.2
20/07:00pm 26.0 25.2 17.9 61 5.1 ESE 19 24 10 13 1012.2 1012.1 0.2
20/06:30pm 26.5 25.9 16.7 55 6.1 E 15 20 8 11 1011.8 1011.7 0.2
20/06:00pm 27.4 25.5 15.1 47 7.5 E 19 28 10 15 1011.1 1011.0 0.2
20/05:30pm 28.2 25.9 14.1 42 8.4 E 19 24 10 13 1010.6 1010.5 0.2
20/05:00pm 29.6 26.7 12.9 35 9.9 E 20 26 11 14 1009.9 1009.8 0.2
20/04:30pm 30.3 27.7 13.1 34 10.2 E 19 26 10 14 1009.5 1009.4 0.2
20/04:00pm 30.4 27.6 13.2 35 10.3 E 20 30 11 16 1009.2 1009.1 0.2
20/03:30pm 30.2 27.9 14.7 39 9.4 E 20 26 11 14 1009.1 1009.0 0.2
20/03:00pm 30.1 27.5 13.8 37 9.8 E 20 32 11 17 1008.9 1008.8 0.2
20/02:30pm 31.5 29.9 15.0 36 10.1 ENE 17 24 9 13 1008.9 1008.8 0.2
20/02:00pm 31.2 29.4 14.4 36 10.2 E 17 28 9 15 1009.1 1009.0 0.2
20/01:30pm 31.4 29.4 15.4 38 9.9 E 20 28 11 15 1009.3 1009.2 0.2
20/01:00pm 31.0 31.4 16.2 41 9.3 S 9 17 5 9 1009.5 1009.4 0.2
20/12:30pm 30.5 30.3 14.6 38 9.7 S 9 17 5 9 1010.0 1009.9 0.2
20/12:00pm 30.2 30.3 15.5 41 9.1 SE 9 15 5 8 1010.4 1010.3 0.2
20/11:30am 29.7 30.3 16.8 45 8.1 SE 9 17 5 9 1010.8 1010.7 0.2
20/11:00am 29.1 29.1 16.3 46 8.0 SSW 11 19 6 10 1011.2 1011.1 0.2
20/10:30am 28.1 27.7 16.1 48 7.4 S 13 22 7 12 1011.4 1011.3 0.2
20/10:00am 27.6 28.7 18.0 55 6.1 SSW 9 20 5 11 1011.4 1011.3 0.2
20/09:30am 26.9 27.1 18.5 60 5.4 SW 15 26 8 14 1011.5 1011.4 0.0
20/09:00am 25.5 26.5 19.4 69 3.9 WSW 13 17 7 9 1011.7 1011.6 7.0
20/08:30am 24.2 25.7 19.7 76 2.9 W 11 15 6 8 1011.7 1011.6 7.0
20/08:00am 23.7 26.2 20.2 81 2.3 SW 7 11 4 6 1011.6 1011.5 7.0
20/07:30am 23.3 25.9 20.4 84 1.9 SW 7 11 4 6 1011.3 1011.2 7.0
20/07:00am 22.8 25.4 20.0 84 1.8 SSW 6 7 3 4 1011.0 1010.9 7.0
20/06:30am 22.4 24.9 20.3 88 1.4 SSE 7 9 4 5 1010.4 1010.3 7.0
20/06:00am 21.8 25.2 20.1 90 1.1 SSW 2 7 1 4 1009.8 1009.7 7.0
20/05:30am 21.5 23.6 20.1 92 0.9 SW 9 9 5 5 1008.8 1008.7 7.0
20/05:00am 21.6 23.9 19.9 90 1.1 SW 7 9 4 5 1008.6 1008.5 7.0
20/04:30am 22.0 23.7 20.1 89 1.2 SSW 11 15 6 8 1008.1 1008.0 7.0
20/04:00am 22.2 23.0 19.9 87 1.5 SW 15 20 8 11 1007.6 1007.5 7.0
20/03:30am 22.4 24.3 20.5 89 1.2 SW 11 15 6 8 1007.4 1007.3 7.0
20/03:00am 22.5 25.3 20.4 88 1.4 NNW 6 7 3 4 1007.3 1007.2 7.0
20/02:30am 22.5 25.4 20.6 89 1.2 N 6 7 3 4 1007.3 1007.2 7.0
20/02:00am 22.4 23.9 20.5 89 1.2 NW 13 17 7 9 1007.9 1007.8 7.0
20/01:30am 22.8 26.7 21.1 90 1.1 SW 2 9 1 5 1007.9 1007.8 7.0
20/01:00am 23.1 27.0 21.2 89 1.2 SSW 2 7 1 4 1008.4 1008.3 7.0
20/12:30am 23.1 25.8 21.4 90 1.1 SSW 9 13 5 7 1009.4 1009.3 7.0
20/12:00am 23.1 24.5 21.0 88 1.4 SW 15 22 8 12 1009.3 1009.2 7.0
 
Date/Time
EST
Temp
°C
App
Temp
°C
Dew
Point
°C
Rel
Hum
%
Delta-T
°C
Wind Press
QNH
hPa
Press
MSL
hPa
Rain since
9am
mm
Dir  Spd
km/h
Gust
km/h
Spd
kts
Gust
kts
19/11:30pm 23.1 24.9 21.2 89 1.2 WSW 13 20 7 11 1009.7 1009.6 7.0
19/11:00pm 23.0 25.7 21.3 90 1.1 NNW 9 11 5 6 1009.7 1009.6 7.0
19/10:30pm 23.6 25.8 21.9 90 1.1 WNW 13 17 7 9 1009.7 1009.6 6.8
19/10:00pm 24.3 27.2 22.4 89 1.3 WNW 11 15 6 8 1009.5 1009.4 4.2
19/09:30pm 24.3 28.8 22.2 88 1.4 N 2 6 1 3 1008.9 1008.8 4.2
19/09:00pm 24.4 28.1 22.5 89 1.3 NNE 7 9 4 5 1009.0 1008.9 4.2
19/08:30pm 24.5 28.5 22.8 90 1.1 NE 6 7 3 4 1008.8 1008.7 4.0
19/08:00pm 24.3 29.2 22.4 89 1.3 CALM 0 6 0 3 1008.3 1008.2 4.0
19/07:30pm 24.1 28.3 21.8 87 1.5 NW 2 7 1 4 1008.0 1007.9 4.0
19/07:00pm 23.9 27.6 21.4 86 1.7 ENE 4 7 2 4 1007.7 1007.6 4.0
19/06:55pm 23.9 27.3 21.6 87 1.5 ENE 6 7 3 4 1007.7 1007.6 4.0
19/06:39pm 23.6 26.9 21.5 88 1.4 NW 6 11 3 6 1007.9 1007.8 4.0
19/06:34pm 23.5 26.2 21.4 88 1.4 WNW 9 15 5 8 1007.9 1007.8 4.0
19/06:30pm 23.5 25.8 21.4 88 1.4 WNW 11 15 6 8 1007.8 1007.7 3.8
19/06:19pm 23.8 26.0 21.1 85 1.8 N 11 17 6 9 1007.8 1007.7 2.6
19/06:00pm 24.4 26.5 20.9 81 2.3 E 11 13 6 7 1007.0 1006.9 2.2
19/05:43pm 25.3 28.9 19.7 71 3.6 CALM 0 6 0 3 1006.9 1006.8 1.2
19/05:30pm 25.7 28.3 20.0 71 3.7 SSE 6 9 3 5 1006.5 1006.4 0.4
19/05:00pm 26.4 29.3 19.8 67 4.3 SSE 4 9 2 5 1006.0 1005.9 0.4
19/04:30pm 26.8 29.7 19.9 66 4.5 SSE 4 9 2 5 1006.1 1006.0 0.2
19/04:00pm 28.1 28.2 19.1 58 5.8 WSW 17 22 9 12 1006.2 1006.1 0.0
19/03:30pm 29.6 29.0 18.4 51 7.2 WSW 19 24 10 13 1005.8 1005.7 0.0
19/03:00pm 30.4 30.1 18.2 48 7.9 WSW 17 22 9 12 1006.2 1006.1 0.0
19/02:30pm 30.8 31.7 19.2 50 7.6 WSW 13 20 7 11 1006.0 1005.9 0.0
19/02:00pm 31.3 31.6 19.6 49 7.7 WSW 17 24 9 13 1006.1 1006.0 0.0
19/01:30pm 31.4 31.7 19.7 49 7.7 SW 17 24 9 13 1006.2 1006.1 0.0
19/01:00pm 31.9 31.6 19.2 47 8.3 WSW 19 26 10 14 1006.5 1006.4 0.0
19/12:30pm 33.0 34.8 21.8 51 7.6 SW 15 26 8 14 1006.7 1006.6 0.0
19/12:00pm 32.0 33.1 21.2 52 7.3 W 17 24 9 13 1007.1 1007.0 0.0
19/11:30am 31.9 32.9 20.2 50 7.8 W 15 20 8 11 1007.4 1007.3 0.0
19/11:00am 30.6 32.2 19.9 52 7.1 WNW 11 20 6 11 1007.3 1007.2 0.0
19/10:30am 29.4 30.9 19.7 56 6.3 NW 11 19 6 10 1007.8 1007.7 0.0
19/10:00am 28.6 30.3 20.1 60 5.6 WNW 11 17 6 9 1008.1 1008.0 0.0
19/09:30am 27.5 29.3 19.6 62 5.1 NW 9 13 5 7 1008.4 1008.3 0.0

Latest Capital City Observations: Canberra | Sydney | Melbourne | Brisbane | Adelaide | Perth | Hobart | Darwin

Other Formats:

Comma delimited format used in spreadsheet applications
http://www.bom.gov.au/fwo/IDQ60901/IDQ60901.94575.axf

JavaScript Object Notation format (JSON) in row-major order
http://www.bom.gov.au/fwo/IDQ60901/IDQ60901.94575.json